sensor_id;sensor_type;location;lat;lon;timestamp;P1;durP1;ratioP1;P2;durP2;ratioP2
74851;SDS011;63400;50.650;6.832;2024-02-14T00:01:14;3.70;;;0.80;;
74851;SDS011;63400;50.650;6.832;2024-02-14T00:03:39;3.30;;;0.75;;
74851;SDS011;63400;50.650;6.832;2024-02-14T00:06:05;3.70;;;0.75;;
74851;SDS011;63400;50.650;6.832;2024-02-14T00:08:31;3.72;;;0.95;;
74851;SDS011;63400;50.650;6.832;2024-02-14T00:10:56;3.97;;;0.82;;
74851;SDS011;63400;50.650;6.832;2024-02-14T00:13:22;3.13;;;0.70;;
74851;SDS011;63400;50.650;6.832;2024-02-14T00:15:47;4.85;;;1.30;;
74851;SDS011;63400;50.650;6.832;2024-02-14T00:18:13;4.22;;;0.60;;
74851;SDS011;63400;50.650;6.832;2024-02-14T00:20:40;4.03;;;0.93;;
74851;SDS011;63400;50.650;6.832;2024-02-14T00:23:05;3.85;;;0.77;;
74851;SDS011;63400;50.650;6.832;2024-02-14T00:25:31;3.33;;;0.60;;
74851;SDS011;63400;50.650;6.832;2024-02-14T00:27:56;3.10;;;0.90;;
74851;SDS011;63400;50.650;6.832;2024-02-14T00:30:23;4.70;;;1.38;;
74851;SDS011;63400;50.650;6.832;2024-02-14T00:32:50;3.88;;;1.02;;
74851;SDS011;63400;50.650;6.832;2024-02-14T00:35:15;4.35;;;1.05;;
74851;SDS011;63400;50.650;6.832;2024-02-14T00:37:40;2.90;;;0.43;;
74851;SDS011;63400;50.650;6.832;2024-02-14T00:40:06;4.30;;;0.80;;
74851;SDS011;63400;50.650;6.832;2024-02-14T00:42:32;3.97;;;1.10;;
74851;SDS011;63400;50.650;6.832;2024-02-14T00:44:57;3.50;;;0.80;;
74851;SDS011;63400;50.650;6.832;2024-02-14T00:47:23;6.10;;;0.95;;
74851;SDS011;63400;50.650;6.832;2024-02-14T00:49:48;4.05;;;0.95;;
74851;SDS011;63400;50.650;6.832;2024-02-14T00:52:14;2.95;;;0.85;;
74851;SDS011;63400;50.650;6.832;2024-02-14T00:54:39;3.42;;;0.90;;
74851;SDS011;63400;50.650;6.832;2024-02-14T00:57:04;4.38;;;0.90;;
74851;SDS011;63400;50.650;6.832;2024-02-14T00:59:30;4.50;;;0.98;;
74851;SDS011;63400;50.650;6.832;2024-02-14T01:01:55;3.60;;;0.82;;
74851;SDS011;63400;50.650;6.832;2024-02-14T01:04:21;3.97;;;1.63;;
74851;SDS011;63400;50.650;6.832;2024-02-14T01:06:46;5.15;;;0.75;;
74851;SDS011;63400;50.650;6.832;2024-02-14T01:09:13;5.05;;;1.13;;
74851;SDS011;63400;50.650;6.832;2024-02-14T01:11:38;3.83;;;0.75;;
74851;SDS011;63400;50.650;6.832;2024-02-14T01:14:04;3.58;;;0.80;;
74851;SDS011;63400;50.650;6.832;2024-02-14T01:16:29;4.68;;;1.10;;
74851;SDS011;63400;50.650;6.832;2024-02-14T01:18:55;5.00;;;1.10;;
74851;SDS011;63400;50.650;6.832;2024-02-14T01:21:20;5.05;;;0.70;;
74851;SDS011;63400;50.650;6.832;2024-02-14T01:23:46;6.00;;;1.35;;
74851;SDS011;63400;50.650;6.832;2024-02-14T01:26:11;3.70;;;1.10;;
74851;SDS011;63400;50.650;6.832;2024-02-14T01:28:36;4.65;;;1.17;;
74851;SDS011;63400;50.650;6.832;2024-02-14T01:31:03;3.63;;;1.20;;
74851;SDS011;63400;50.650;6.832;2024-02-14T01:33:28;3.63;;;0.40;;
74851;SDS011;63400;50.650;6.832;2024-02-14T01:35:55;3.25;;;1.20;;
74851;SDS011;63400;50.650;6.832;2024-02-14T01:38:22;3.63;;;0.77;;
74851;SDS011;63400;50.650;6.832;2024-02-14T01:40:48;3.63;;;1.02;;
74851;SDS011;63400;50.650;6.832;2024-02-14T01:43:13;3.53;;;0.65;;
74851;SDS011;63400;50.650;6.832;2024-02-14T01:45:39;4.60;;;0.68;;
74851;SDS011;63400;50.650;6.832;2024-02-14T01:48:05;4.50;;;0.40;;
74851;SDS011;63400;50.650;6.832;2024-02-14T01:50:31;3.72;;;0.75;;
74851;SDS011;63400;50.650;6.832;2024-02-14T01:52:59;3.67;;;0.80;;
74851;SDS011;63400;50.650;6.832;2024-02-14T01:55:26;3.63;;;0.52;;
74851;SDS011;63400;50.650;6.832;2024-02-14T01:57:53;4.07;;;0.82;;
74851;SDS011;63400;50.650;6.832;2024-02-14T02:00:19;2.70;;;0.65;;
74851;SDS011;63400;50.650;6.832;2024-02-14T02:02:45;4.85;;;1.02;;
74851;SDS011;63400;50.650;6.832;2024-02-14T02:05:12;3.10;;;0.52;;
74851;SDS011;63400;50.650;6.832;2024-02-14T02:07:38;2.15;;;0.57;;
74851;SDS011;63400;50.650;6.832;2024-02-14T02:10:08;4.28;;;1.02;;
74851;SDS011;63400;50.650;6.832;2024-02-14T02:12:34;5.60;;;1.38;;
74851;SDS011;63400;50.650;6.832;2024-02-14T02:14:59;3.55;;;0.88;;
74851;SDS011;63400;50.650;6.832;2024-02-14T02:17:25;3.85;;;1.42;;
74851;SDS011;63400;50.650;6.832;2024-02-14T02:19:53;3.97;;;1.33;;
74851;SDS011;63400;50.650;6.832;2024-02-14T02:22:20;3.80;;;0.77;;
74851;SDS011;63400;50.650;6.832;2024-02-14T02:24:45;2.90;;;0.40;;
74851;SDS011;63400;50.650;6.832;2024-02-14T02:27:12;5.20;;;0.88;;
74851;SDS011;63400;50.650;6.832;2024-02-14T02:29:38;3.95;;;0.80;;
74851;SDS011;63400;50.650;6.832;2024-02-14T02:32:04;3.83;;;0.82;;
74851;SDS011;63400;50.650;6.832;2024-02-14T02:34:31;3.33;;;0.63;;
74851;SDS011;63400;50.650;6.832;2024-02-14T02:36:56;4.07;;;0.75;;
74851;SDS011;63400;50.650;6.832;2024-02-14T02:39:22;4.32;;;1.20;;
74851;SDS011;63400;50.650;6.832;2024-02-14T02:41:47;4.63;;;0.22;;
74851;SDS011;63400;50.650;6.832;2024-02-14T02:44:14;3.10;;;0.77;;
74851;SDS011;63400;50.650;6.832;2024-02-14T02:46:40;4.40;;;1.05;;
74851;SDS011;63400;50.650;6.832;2024-02-14T02:49:05;3.83;;;0.93;;
74851;SDS011;63400;50.650;6.832;2024-02-14T02:51:30;2.42;;;0.70;;
74851;SDS011;63400;50.650;6.832;2024-02-14T02:53:56;4.30;;;0.63;;
74851;SDS011;63400;50.650;6.832;2024-02-14T02:56:22;4.20;;;1.15;;
74851;SDS011;63400;50.650;6.832;2024-02-14T02:58:52;3.42;;;1.05;;
74851;SDS011;63400;50.650;6.832;2024-02-14T03:01:18;2.50;;;0.52;;
74851;SDS011;63400;50.650;6.832;2024-02-14T03:03:44;2.03;;;0.50;;
74851;SDS011;63400;50.650;6.832;2024-02-14T03:06:09;3.05;;;0.65;;
74851;SDS011;63400;50.650;6.832;2024-02-14T03:08:35;3.08;;;0.57;;
74851;SDS011;63400;50.650;6.832;2024-02-14T03:11:04;3.65;;;0.85;;
74851;SDS011;63400;50.650;6.832;2024-02-14T03:13:30;2.80;;;0.60;;
74851;SDS011;63400;50.650;6.832;2024-02-14T03:15:56;1.88;;;0.47;;
74851;SDS011;63400;50.650;6.832;2024-02-14T03:18:23;4.43;;;0.88;;
74851;SDS011;63400;50.650;6.832;2024-02-14T03:20:49;2.05;;;0.85;;
74851;SDS011;63400;50.650;6.832;2024-02-14T03:23:15;2.88;;;0.50;;
74851;SDS011;63400;50.650;6.832;2024-02-14T03:25:41;3.63;;;1.13;;
74851;SDS011;63400;50.650;6.832;2024-02-14T03:28:07;3.72;;;0.77;;
74851;SDS011;63400;50.650;6.832;2024-02-14T03:30:36;4.05;;;0.63;;
74851;SDS011;63400;50.650;6.832;2024-02-14T03:33:04;3.58;;;0.60;;
74851;SDS011;63400;50.650;6.832;2024-02-14T03:35:30;3.50;;;0.77;;
74851;SDS011;63400;50.650;6.832;2024-02-14T03:37:55;3.70;;;0.85;;
74851;SDS011;63400;50.650;6.832;2024-02-14T03:40:21;3.10;;;0.60;;
74851;SDS011;63400;50.650;6.832;2024-02-14T03:42:47;2.80;;;0.70;;
74851;SDS011;63400;50.650;6.832;2024-02-14T03:45:12;3.92;;;0.55;;
74851;SDS011;63400;50.650;6.832;2024-02-14T03:47:38;2.72;;;0.70;;
74851;SDS011;63400;50.650;6.832;2024-02-14T03:50:04;4.05;;;1.05;;
74851;SDS011;63400;50.650;6.832;2024-02-14T03:52:31;3.10;;;0.82;;
74851;SDS011;63400;50.650;6.832;2024-02-14T03:54:57;3.33;;;0.82;;
74851;SDS011;63400;50.650;6.832;2024-02-14T03:57:24;2.95;;;0.93;;
74851;SDS011;63400;50.650;6.832;2024-02-14T03:59:50;4.07;;;0.70;;
74851;SDS011;63400;50.650;6.832;2024-02-14T04:02:17;3.05;;;0.73;;
74851;SDS011;63400;50.650;6.832;2024-02-14T04:04:43;3.97;;;0.63;;
74851;SDS011;63400;50.650;6.832;2024-02-14T04:12:02;3.47;;;1.00;;
74851;SDS011;63400;50.650;6.832;2024-02-14T04:14:27;3.28;;;0.90;;
74851;SDS011;63400;50.650;6.832;2024-02-14T04:16:53;4.22;;;0.90;;
74851;SDS011;63400;50.650;6.832;2024-02-14T04:19:19;2.97;;;0.90;;
74851;SDS011;63400;50.650;6.832;2024-02-14T04:21:46;2.75;;;0.63;;
74851;SDS011;63400;50.650;6.832;2024-02-14T04:24:11;4.28;;;0.77;;
74851;SDS011;63400;50.650;6.832;2024-02-14T04:26:37;2.60;;;0.57;;
74851;SDS011;63400;50.650;6.832;2024-02-14T04:29:02;3.53;;;0.80;;
74851;SDS011;63400;50.650;6.832;2024-02-14T04:31:28;3.50;;;0.93;;
74851;SDS011;63400;50.650;6.832;2024-02-14T04:33:55;4.00;;;1.13;;
74851;SDS011;63400;50.650;6.832;2024-02-14T04:36:21;2.03;;;0.45;;
74851;SDS011;63400;50.650;6.832;2024-02-14T04:38:48;5.32;;;0.95;;
74851;SDS011;63400;50.650;6.832;2024-02-14T04:41:14;3.00;;;0.75;;
74851;SDS011;63400;50.650;6.832;2024-02-14T04:43:39;2.90;;;0.98;;
74851;SDS011;63400;50.650;6.832;2024-02-14T04:46:05;3.00;;;0.70;;
74851;SDS011;63400;50.650;6.832;2024-02-14T04:48:35;5.03;;;1.10;;
74851;SDS011;63400;50.650;6.832;2024-02-14T04:51:01;4.32;;;0.85;;
74851;SDS011;63400;50.650;6.832;2024-02-14T04:53:27;3.45;;;0.80;;
74851;SDS011;63400;50.650;6.832;2024-02-14T04:55:53;4.75;;;1.10;;
74851;SDS011;63400;50.650;6.832;2024-02-14T04:58:19;3.20;;;0.80;;
74851;SDS011;63400;50.650;6.832;2024-02-14T05:00:45;2.22;;;0.68;;
74851;SDS011;63400;50.650;6.832;2024-02-14T05:03:10;3.80;;;0.82;;
74851;SDS011;63400;50.650;6.832;2024-02-14T05:05:36;4.13;;;0.88;;
74851;SDS011;63400;50.650;6.832;2024-02-14T05:08:02;2.70;;;0.70;;
74851;SDS011;63400;50.650;6.832;2024-02-14T05:10:27;4.45;;;1.15;;
74851;SDS011;63400;50.650;6.832;2024-02-14T05:12:53;3.15;;;1.02;;
74851;SDS011;63400;50.650;6.832;2024-02-14T05:15:19;2.90;;;0.73;;
74851;SDS011;63400;50.650;6.832;2024-02-14T05:17:44;2.92;;;0.82;;
74851;SDS011;63400;50.650;6.832;2024-02-14T05:20:10;2.97;;;0.90;;
74851;SDS011;63400;50.650;6.832;2024-02-14T05:22:36;3.03;;;0.65;;
74851;SDS011;63400;50.650;6.832;2024-02-14T05:25:03;2.33;;;0.73;;
74851;SDS011;63400;50.650;6.832;2024-02-14T05:27:29;4.07;;;1.17;;
74851;SDS011;63400;50.650;6.832;2024-02-14T05:29:55;3.90;;;0.93;;
74851;SDS011;63400;50.650;6.832;2024-02-14T05:32:20;2.67;;;0.70;;
74851;SDS011;63400;50.650;6.832;2024-02-14T05:34:46;2.97;;;0.70;;
74851;SDS011;63400;50.650;6.832;2024-02-14T05:37:11;2.88;;;0.50;;
74851;SDS011;63400;50.650;6.832;2024-02-14T05:39:36;2.15;;;0.47;;
74851;SDS011;63400;50.650;6.832;2024-02-14T05:42:02;2.92;;;0.88;;
74851;SDS011;63400;50.650;6.832;2024-02-14T05:44:29;2.55;;;0.57;;
74851;SDS011;63400;50.650;6.832;2024-02-14T05:46:55;2.47;;;0.70;;
74851;SDS011;63400;50.650;6.832;2024-02-14T05:49:21;3.03;;;0.80;;
74851;SDS011;63400;50.650;6.832;2024-02-14T05:51:47;2.05;;;0.65;;
74851;SDS011;63400;50.650;6.832;2024-02-14T05:54:12;2.15;;;0.68;;
74851;SDS011;63400;50.650;6.832;2024-02-14T05:56:38;2.15;;;0.50;;
74851;SDS011;63400;50.650;6.832;2024-02-14T05:59:03;3.10;;;0.77;;
74851;SDS011;63400;50.650;6.832;2024-02-14T06:01:29;3.88;;;0.95;;
74851;SDS011;63400;50.650;6.832;2024-02-14T06:03:55;3.05;;;0.73;;
74851;SDS011;63400;50.650;6.832;2024-02-14T06:06:20;2.75;;;1.23;;
74851;SDS011;63400;50.650;6.832;2024-02-14T06:08:46;3.03;;;0.75;;
74851;SDS011;63400;50.650;6.832;2024-02-14T06:11:11;2.92;;;1.05;;
74851;SDS011;63400;50.650;6.832;2024-02-14T06:18:30;2.97;;;0.65;;
74851;SDS011;63400;50.650;6.832;2024-02-14T06:20:55;3.78;;;0.82;;
74851;SDS011;63400;50.650;6.832;2024-02-14T06:23:21;2.97;;;0.88;;
74851;SDS011;63400;50.650;6.832;2024-02-14T06:25:46;2.80;;;0.68;;
74851;SDS011;63400;50.650;6.832;2024-02-14T06:28:11;3.30;;;1.00;;
74851;SDS011;63400;50.650;6.832;2024-02-14T06:30:37;3.60;;;0.63;;
74851;SDS011;63400;50.650;6.832;2024-02-14T06:33:02;2.72;;;0.90;;
74851;SDS011;63400;50.650;6.832;2024-02-14T06:35:28;3.35;;;0.98;;
74851;SDS011;63400;50.650;6.832;2024-02-14T06:37:54;2.28;;;0.50;;
74851;SDS011;63400;50.650;6.832;2024-02-14T06:40:19;3.88;;;0.65;;
74851;SDS011;63400;50.650;6.832;2024-02-14T06:42:45;3.08;;;0.73;;
74851;SDS011;63400;50.650;6.832;2024-02-14T06:45:10;2.47;;;0.77;;
74851;SDS011;63400;50.650;6.832;2024-02-14T06:47:36;2.63;;;0.77;;
74851;SDS011;63400;50.650;6.832;2024-02-14T06:50:01;2.42;;;0.38;;
74851;SDS011;63400;50.650;6.832;2024-02-14T06:52:26;3.50;;;0.65;;
74851;SDS011;63400;50.650;6.832;2024-02-14T06:54:52;3.30;;;0.57;;
74851;SDS011;63400;50.650;6.832;2024-02-14T06:57:17;2.75;;;0.73;;
74851;SDS011;63400;50.650;6.832;2024-02-14T06:59:43;2.50;;;0.68;;
74851;SDS011;63400;50.650;6.832;2024-02-14T07:02:08;2.25;;;0.68;;
74851;SDS011;63400;50.650;6.832;2024-02-14T07:04:34;1.77;;;0.30;;
74851;SDS011;63400;50.650;6.832;2024-02-14T07:06:59;3.15;;;0.70;;
74851;SDS011;63400;50.650;6.832;2024-02-14T07:09:25;3.83;;;0.73;;
74851;SDS011;63400;50.650;6.832;2024-02-14T07:11:51;3.33;;;0.70;;
74851;SDS011;63400;50.650;6.832;2024-02-14T07:14:18;1.88;;;0.52;;
74851;SDS011;63400;50.650;6.832;2024-02-14T07:16:44;2.85;;;0.95;;
74851;SDS011;63400;50.650;6.832;2024-02-14T07:19:10;3.35;;;0.80;;
74851;SDS011;63400;50.650;6.832;2024-02-14T07:21:35;2.17;;;0.30;;
74851;SDS011;63400;50.650;6.832;2024-02-14T07:24:02;1.55;;;0.32;;
74851;SDS011;63400;50.650;6.832;2024-02-14T07:26:29;2.25;;;0.20;;
74851;SDS011;63400;50.650;6.832;2024-02-14T07:28:54;2.10;;;0.50;;
74851;SDS011;63400;50.650;6.832;2024-02-14T07:31:20;2.30;;;0.55;;
74851;SDS011;63400;50.650;6.832;2024-02-14T07:33:45;1.50;;;0.30;;
74851;SDS011;63400;50.650;6.832;2024-02-14T07:36:12;1.75;;;0.38;;
74851;SDS011;63400;50.650;6.832;2024-02-14T07:38:38;2.60;;;0.30;;
74851;SDS011;63400;50.650;6.832;2024-02-14T07:41:03;3.63;;;0.40;;
74851;SDS011;63400;50.650;6.832;2024-02-14T07:43:28;2.25;;;0.20;;
74851;SDS011;63400;50.650;6.832;2024-02-14T07:45:54;3.00;;;0.82;;
74851;SDS011;63400;50.650;6.832;2024-02-14T07:48:19;3.38;;;0.60;;
74851;SDS011;63400;50.650;6.832;2024-02-14T07:50:45;2.45;;;0.50;;
74851;SDS011;63400;50.650;6.832;2024-02-14T07:53:10;3.17;;;0.40;;
74851;SDS011;63400;50.650;6.832;2024-02-14T07:55:36;2.22;;;0.70;;
74851;SDS011;63400;50.650;6.832;2024-02-14T07:58:01;2.85;;;0.60;;
74851;SDS011;63400;50.650;6.832;2024-02-14T08:00:26;3.33;;;0.65;;
74851;SDS011;63400;50.650;6.832;2024-02-14T08:02:52;4.35;;;1.05;;
74851;SDS011;63400;50.650;6.832;2024-02-14T08:05:17;2.25;;;0.40;;
74851;SDS011;63400;50.650;6.832;2024-02-14T08:07:44;2.03;;;0.65;;
74851;SDS011;63400;50.650;6.832;2024-02-14T08:10:10;2.05;;;0.30;;
74851;SDS011;63400;50.650;6.832;2024-02-14T08:12:35;2.25;;;0.40;;
74851;SDS011;63400;50.650;6.832;2024-02-14T08:15:01;3.55;;;0.52;;
74851;SDS011;63400;50.650;6.832;2024-02-14T08:17:29;2.92;;;0.75;;
74851;SDS011;63400;50.650;6.832;2024-02-14T08:19:55;3.03;;;0.65;;
74851;SDS011;63400;50.650;6.832;2024-02-14T08:22:20;1.75;;;0.28;;
74851;SDS011;63400;50.650;6.832;2024-02-14T08:24:46;2.30;;;0.30;;
74851;SDS011;63400;50.650;6.832;2024-02-14T08:27:11;1.48;;;0.32;;
74851;SDS011;63400;50.650;6.832;2024-02-14T08:29:37;2.38;;;0.55;;
74851;SDS011;63400;50.650;6.832;2024-02-14T08:32:02;2.63;;;0.40;;
74851;SDS011;63400;50.650;6.832;2024-02-14T08:34:28;3.10;;;0.40;;
74851;SDS011;63400;50.650;6.832;2024-02-14T08:36:54;2.38;;;0.30;;
74851;SDS011;63400;50.650;6.832;2024-02-14T08:39:20;1.63;;;0.35;;
74851;SDS011;63400;50.650;6.832;2024-02-14T08:41:45;1.48;;;0.32;;
74851;SDS011;63400;50.650;6.832;2024-02-14T08:44:12;2.10;;;0.25;;
74851;SDS011;63400;50.650;6.832;2024-02-14T08:46:38;0.93;;;0.00;;
74851;SDS011;63400;50.650;6.832;2024-02-14T08:49:04;1.88;;;0.17;;
74851;SDS011;63400;50.650;6.832;2024-02-14T08:51:37;1.58;;;0.10;;
74851;SDS011;63400;50.650;6.832;2024-02-14T08:54:03;0.98;;;0.10;;
74851;SDS011;63400;50.650;6.832;2024-02-14T08:56:31;1.17;;;0.10;;
74851;SDS011;63400;50.650;6.832;2024-02-14T08:59:00;1.00;;;0.20;;
74851;SDS011;63400;50.650;6.832;2024-02-14T09:01:27;1.05;;;0.30;;
74851;SDS011;63400;50.650;6.832;2024-02-14T09:03:55;3.67;;;0.43;;
74851;SDS011;63400;50.650;6.832;2024-02-14T09:06:22;1.25;;;0.20;;
74851;SDS011;63400;50.650;6.832;2024-02-14T09:08:48;1.17;;;0.20;;
74851;SDS011;63400;50.650;6.832;2024-02-14T09:11:15;1.35;;;0.10;;
74851;SDS011;63400;50.650;6.832;2024-02-14T09:13:41;2.53;;;0.20;;
74851;SDS011;63400;50.650;6.832;2024-02-14T09:16:07;2.35;;;0.40;;
74851;SDS011;63400;50.650;6.832;2024-02-14T09:18:33;1.52;;;0.30;;
74851;SDS011;63400;50.650;6.832;2024-02-14T09:21:00;1.95;;;0.25;;
74851;SDS011;63400;50.650;6.832;2024-02-14T09:23:26;2.15;;;0.25;;
74851;SDS011;63400;50.650;6.832;2024-02-14T09:25:52;1.73;;;0.30;;
74851;SDS011;63400;50.650;6.832;2024-02-14T09:28:17;1.42;;;0.22;;
74851;SDS011;63400;50.650;6.832;2024-02-14T09:30:43;1.73;;;0.15;;
74851;SDS011;63400;50.650;6.832;2024-02-14T09:33:09;2.15;;;0.43;;
74851;SDS011;63400;50.650;6.832;2024-02-14T09:35:34;1.33;;;0.20;;
74851;SDS011;63400;50.650;6.832;2024-02-14T09:38:03;1.25;;;0.15;;
74851;SDS011;63400;50.650;6.832;2024-02-14T09:40:28;2.90;;;0.20;;
74851;SDS011;63400;50.650;6.832;2024-02-14T09:42:54;1.95;;;0.22;;
74851;SDS011;63400;50.650;6.832;2024-02-14T09:45:26;2.05;;;0.40;;
74851;SDS011;63400;50.650;6.832;2024-02-14T09:47:52;1.45;;;0.10;;
74851;SDS011;63400;50.650;6.832;2024-02-14T09:50:19;1.20;;;0.13;;
74851;SDS011;63400;50.650;6.832;2024-02-14T09:52:46;2.38;;;0.40;;
74851;SDS011;63400;50.650;6.832;2024-02-14T09:55:13;1.33;;;0.13;;
74851;SDS011;63400;50.650;6.832;2024-02-14T09:57:40;0.85;;;0.13;;
74851;SDS011;63400;50.650;6.832;2024-02-14T10:00:08;2.25;;;0.35;;
74851;SDS011;63400;50.650;6.832;2024-02-14T10:05:00;2.67;;;0.50;;
74851;SDS011;63400;50.650;6.832;2024-02-14T10:07:26;2.25;;;0.30;;
74851;SDS011;63400;50.650;6.832;2024-02-14T10:09:52;2.50;;;0.50;;
74851;SDS011;63400;50.650;6.832;2024-02-14T10:12:18;2.88;;;0.10;;
74851;SDS011;63400;50.650;6.832;2024-02-14T10:14:44;1.40;;;0.22;;
74851;SDS011;63400;50.650;6.832;2024-02-14T10:17:17;2.30;;;0.30;;
74851;SDS011;63400;50.650;6.832;2024-02-14T10:19:43;2.05;;;0.40;;
74851;SDS011;63400;50.650;6.832;2024-02-14T10:22:08;2.15;;;0.30;;
74851;SDS011;63400;50.650;6.832;2024-02-14T10:24:34;2.47;;;0.17;;
74851;SDS011;63400;50.650;6.832;2024-02-14T10:27:00;2.55;;;0.20;;
74851;SDS011;63400;50.650;6.832;2024-02-14T10:29:26;1.60;;;0.30;;
74851;SDS011;63400;50.650;6.832;2024-02-14T10:31:54;1.77;;;0.40;;
74851;SDS011;63400;50.650;6.832;2024-02-14T10:34:19;2.65;;;1.05;;
74851;SDS011;63400;50.650;6.832;2024-02-14T10:36:49;2.10;;;0.20;;
74851;SDS011;63400;50.650;6.832;2024-02-14T10:39:16;1.95;;;0.25;;
74851;SDS011;63400;50.650;6.832;2024-02-14T10:41:42;1.02;;;0.22;;
74851;SDS011;63400;50.650;6.832;2024-02-14T10:44:07;1.17;;;0.10;;
74851;SDS011;63400;50.650;6.832;2024-02-14T10:46:36;1.95;;;0.00;;
74851;SDS011;63400;50.650;6.832;2024-02-14T10:49:05;1.52;;;0.17;;
74851;SDS011;63400;50.650;6.832;2024-02-14T10:51:32;1.60;;;0.00;;
74851;SDS011;63400;50.650;6.832;2024-02-14T10:54:00;0.90;;;0.20;;
74851;SDS011;63400;50.650;6.832;2024-02-14T10:56:30;1.67;;;0.20;;
74851;SDS011;63400;50.650;6.832;2024-02-14T10:58:57;1.70;;;0.15;;
74851;SDS011;63400;50.650;6.832;2024-02-14T11:01:24;1.88;;;0.13;;
74851;SDS011;63400;50.650;6.832;2024-02-14T11:03:52;1.02;;;0.45;;
74851;SDS011;63400;50.650;6.832;2024-02-14T11:06:17;3.00;;;0.30;;
74851;SDS011;63400;50.650;6.832;2024-02-14T11:08:54;1.30;;;0.10;;
74851;SDS011;63400;50.650;6.832;2024-02-14T11:11:35;1.33;;;0.10;;
74851;SDS011;63400;50.650;6.832;2024-02-14T11:14:01;1.90;;;0.20;;
74851;SDS011;63400;50.650;6.832;2024-02-14T11:16:30;1.42;;;0.17;;
74851;SDS011;63400;50.650;6.832;2024-02-14T11:21:39;2.10;;;0.50;;
74851;SDS011;63400;50.650;6.832;2024-02-14T11:24:07;1.40;;;0.28;;
74851;SDS011;63400;50.650;6.832;2024-02-14T11:26:48;1.42;;;0.30;;
74851;SDS011;63400;50.650;6.832;2024-02-14T11:29:16;0.68;;;0.00;;
74851;SDS011;63400;50.650;6.832;2024-02-14T11:31:42;2.50;;;0.08;;
74851;SDS011;63400;50.650;6.832;2024-02-14T11:34:10;1.20;;;0.10;;
74851;SDS011;63400;50.650;6.832;2024-02-14T11:36:37;0.73;;;0.40;;
74851;SDS011;63400;50.650;6.832;2024-02-14T11:39:03;2.33;;;0.47;;
74851;SDS011;63400;50.650;6.832;2024-02-14T11:41:32;2.58;;;0.45;;
74851;SDS011;63400;50.650;6.832;2024-02-14T11:44:02;1.42;;;0.10;;
74851;SDS011;63400;50.650;6.832;2024-02-14T11:46:33;1.45;;;0.20;;
74851;SDS011;63400;50.650;6.832;2024-02-14T11:48:59;2.25;;;0.28;;
74851;SDS011;63400;50.650;6.832;2024-02-14T11:51:28;1.58;;;0.20;;
74851;SDS011;63400;50.650;6.832;2024-02-14T11:53:57;1.63;;;0.28;;
74851;SDS011;63400;50.650;6.832;2024-02-14T11:56:30;2.03;;;0.10;;
74851;SDS011;63400;50.650;6.832;2024-02-14T11:59:06;1.50;;;0.15;;
74851;SDS011;63400;50.650;6.832;2024-02-14T12:01:33;0.90;;;0.08;;
74851;SDS011;63400;50.650;6.832;2024-02-14T12:04:00;1.10;;;0.20;;
74851;SDS011;63400;50.650;6.832;2024-02-14T12:06:27;1.88;;;0.10;;
74851;SDS011;63400;50.650;6.832;2024-02-14T12:08:54;0.95;;;0.10;;
74851;SDS011;63400;50.650;6.832;2024-02-14T12:11:19;0.88;;;0.03;;
74851;SDS011;63400;50.650;6.832;2024-02-14T12:13:49;1.00;;;0.10;;
74851;SDS011;63400;50.650;6.832;2024-02-14T12:16:15;1.48;;;0.08;;
74851;SDS011;63400;50.650;6.832;2024-02-14T12:18:41;1.58;;;0.10;;
74851;SDS011;63400;50.650;6.832;2024-02-14T12:21:07;2.05;;;0.40;;
74851;SDS011;63400;50.650;6.832;2024-02-14T12:23:33;1.95;;;0.35;;
74851;SDS011;63400;50.650;6.832;2024-02-14T12:26:01;4.38;;;0.10;;
74851;SDS011;63400;50.650;6.832;2024-02-14T12:28:28;1.67;;;0.10;;
74851;SDS011;63400;50.650;6.832;2024-02-14T12:30:55;1.65;;;0.03;;
74851;SDS011;63400;50.650;6.832;2024-02-14T12:33:21;1.00;;;0.03;;
74851;SDS011;63400;50.650;6.832;2024-02-14T12:38:14;1.85;;;0.30;;
74851;SDS011;63400;50.650;6.832;2024-02-14T12:40:41;1.52;;;0.20;;
74851;SDS011;63400;50.650;6.832;2024-02-14T12:43:06;0.93;;;0.03;;
74851;SDS011;63400;50.650;6.832;2024-02-14T12:45:32;1.73;;;0.28;;
74851;SDS011;63400;50.650;6.832;2024-02-14T12:47:58;2.97;;;0.13;;
74851;SDS011;63400;50.650;6.832;2024-02-14T12:50:24;1.63;;;0.30;;
74851;SDS011;63400;50.650;6.832;2024-02-14T12:52:50;1.17;;;0.30;;
74851;SDS011;63400;50.650;6.832;2024-02-14T12:55:15;1.67;;;0.20;;
74851;SDS011;63400;50.650;6.832;2024-02-14T12:57:41;0.98;;;0.10;;
74851;SDS011;63400;50.650;6.832;2024-02-14T13:00:06;0.90;;;0.13;;
74851;SDS011;63400;50.650;6.832;2024-02-14T13:02:34;1.98;;;0.17;;
74851;SDS011;63400;50.650;6.832;2024-02-14T13:05:00;2.10;;;0.10;;
74851;SDS011;63400;50.650;6.832;2024-02-14T13:07:29;0.93;;;0.10;;
74851;SDS011;63400;50.650;6.832;2024-02-14T13:09:55;1.33;;;0.00;;
74851;SDS011;63400;50.650;6.832;2024-02-14T13:12:21;1.45;;;0.10;;
74851;SDS011;63400;50.650;6.832;2024-02-14T13:14:46;2.00;;;0.55;;
74851;SDS011;63400;50.650;6.832;2024-02-14T13:17:12;1.85;;;0.32;;
74851;SDS011;63400;50.650;6.832;2024-02-14T13:19:38;0.88;;;0.10;;
74851;SDS011;63400;50.650;6.832;2024-02-14T13:22:04;1.50;;;0.10;;
74851;SDS011;63400;50.650;6.832;2024-02-14T13:24:30;1.77;;;0.20;;
74851;SDS011;63400;50.650;6.832;2024-02-14T13:26:56;1.63;;;0.13;;
74851;SDS011;63400;50.650;6.832;2024-02-14T13:29:25;0.50;;;0.00;;
74851;SDS011;63400;50.650;6.832;2024-02-14T13:31:59;1.52;;;0.30;;
74851;SDS011;63400;50.650;6.832;2024-02-14T13:34:27;1.88;;;0.20;;
74851;SDS011;63400;50.650;6.832;2024-02-14T13:36:52;1.33;;;0.03;;
74851;SDS011;63400;50.650;6.832;2024-02-14T13:39:19;1.42;;;0.08;;
74851;SDS011;63400;50.650;6.832;2024-02-14T13:41:44;1.70;;;0.20;;
74851;SDS011;63400;50.650;6.832;2024-02-14T13:44:10;1.45;;;0.15;;
74851;SDS011;63400;50.650;6.832;2024-02-14T13:46:38;1.35;;;0.32;;
74851;SDS011;63400;50.650;6.832;2024-02-14T13:49:09;1.50;;;0.25;;
74851;SDS011;63400;50.650;6.832;2024-02-14T13:51:35;1.10;;;0.00;;
74851;SDS011;63400;50.650;6.832;2024-02-14T13:54:01;1.45;;;0.10;;
74851;SDS011;63400;50.650;6.832;2024-02-14T13:56:27;1.85;;;0.20;;
74851;SDS011;63400;50.650;6.832;2024-02-14T13:58:52;0.95;;;0.05;;
74851;SDS011;63400;50.650;6.832;2024-02-14T14:01:18;3.70;;;0.35;;
74851;SDS011;63400;50.650;6.832;2024-02-14T14:03:44;1.42;;;0.10;;
74851;SDS011;63400;50.650;6.832;2024-02-14T14:06:09;1.42;;;0.10;;
74851;SDS011;63400;50.650;6.832;2024-02-14T14:08:35;1.10;;;0.10;;
74851;SDS011;63400;50.650;6.832;2024-02-14T14:11:03;1.92;;;0.28;;
74851;SDS011;63400;50.650;6.832;2024-02-14T14:13:29;1.33;;;0.20;;
74851;SDS011;63400;50.650;6.832;2024-02-14T14:16:04;1.67;;;0.10;;
74851;SDS011;63400;50.650;6.832;2024-02-14T14:18:30;1.48;;;0.20;;
74851;SDS011;63400;50.650;6.832;2024-02-14T14:20:56;1.02;;;0.20;;
74851;SDS011;63400;50.650;6.832;2024-02-14T14:23:22;1.02;;;0.03;;
74851;SDS011;63400;50.650;6.832;2024-02-14T14:25:47;1.08;;;0.20;;
74851;SDS011;63400;50.650;6.832;2024-02-14T14:28:13;0.98;;;0.15;;
74851;SDS011;63400;50.650;6.832;2024-02-14T14:30:39;2.00;;;0.32;;
74851;SDS011;63400;50.650;6.832;2024-02-14T14:33:05;2.08;;;0.35;;
74851;SDS011;63400;50.650;6.832;2024-02-14T14:35:30;1.42;;;0.25;;
74851;SDS011;63400;50.650;6.832;2024-02-14T14:37:59;0.90;;;0.08;;
74851;SDS011;63400;50.650;6.832;2024-02-14T14:40:25;1.63;;;0.20;;
74851;SDS011;63400;50.650;6.832;2024-02-14T14:42:50;0.95;;;0.00;;
74851;SDS011;63400;50.650;6.832;2024-02-14T14:45:16;1.02;;;0.15;;
74851;SDS011;63400;50.650;6.832;2024-02-14T14:47:41;1.88;;;0.08;;
74851;SDS011;63400;50.650;6.832;2024-02-14T14:50:07;1.08;;;0.30;;
74851;SDS011;63400;50.650;6.832;2024-02-14T14:52:33;1.27;;;0.10;;
74851;SDS011;63400;50.650;6.832;2024-02-14T14:54:59;1.45;;;0.10;;
74851;SDS011;63400;50.650;6.832;2024-02-14T14:57:24;1.00;;;0.10;;
74851;SDS011;63400;50.650;6.832;2024-02-14T14:59:50;1.83;;;0.10;;